createdAt,value
2023-02-11T00:00:15.715Z,76.84
2023-02-11T00:05:39.216Z,76.73
2023-02-11T00:11:45.191Z,76.55
2023-02-11T00:25:05.460Z,76.32
2023-02-11T00:31:35.518Z,76.12
2023-02-11T00:44:56.060Z,75.93
2023-02-11T00:57:03.422Z,75.83
2023-02-11T01:02:06.839Z,75.82
2023-02-11T01:07:10.208Z,75.76
2023-02-11T01:12:13.703Z,75.87
2023-02-11T01:17:17.692Z,75.96
2023-02-11T01:22:21.150Z,76.05
2023-02-11T01:27:24.894Z,76.19
2023-02-11T01:32:28.373Z,76.19
2023-02-11T01:37:34.505Z,76.32
2023-02-11T01:42:38.133Z,76.44
2023-02-11T01:47:41.571Z,76.45
2023-02-11T01:52:46.630Z,76.49
2023-02-11T01:57:55.750Z,76.60
2023-02-11T02:03:04.783Z,76.53
2023-02-11T02:08:17.536Z,76.49
2023-02-11T02:13:21.245Z,76.47
2023-02-11T02:18:39.745Z,76.28
2023-02-11T02:24:14.261Z,76.26
2023-02-11T02:29:50.131Z,75.98
2023-02-11T02:35:01.372Z,75.57
2023-02-11T02:40:09.618Z,75.25
2023-02-11T02:45:14.225Z,74.98
2023-02-11T02:50:24.435Z,74.50
2023-02-11T02:55:42.565Z,74.28
2023-02-11T03:01:02.983Z,73.91
2023-02-11T03:06:11.178Z,73.82
2023-02-11T03:11:19.005Z,73.78
2023-02-11T03:16:25.722Z,73.35
2023-02-11T03:21:35.436Z,73.33
2023-02-11T03:26:43.983Z,73.35
2023-02-11T03:31:56.072Z,73.36
2023-02-11T03:37:05.942Z,73.48
2023-02-11T03:42:11.708Z,73.59
2023-02-11T03:47:18.914Z,73.64
2023-02-11T03:52:24.942Z,73.59
2023-02-11T03:57:28.463Z,73.59
2023-02-11T04:02:34.727Z,73.54
2023-02-11T04:07:38.392Z,73.62
2023-02-11T04:12:42.043Z,73.61
2023-02-11T04:17:45.511Z,73.53
2023-02-11T04:22:48.922Z,73.51
2023-02-11T04:27:52.471Z,73.56
2023-02-11T04:32:56.294Z,73.62
2023-02-11T04:37:59.776Z,73.54
2023-02-11T04:43:03.244Z,73.47
2023-02-11T04:48:06.958Z,73.63
2023-02-11T04:53:10.426Z,73.54
2023-02-11T04:58:13.824Z,73.60
2023-02-11T05:03:17.338Z,73.33
2023-02-11T05:08:20.832Z,73.04
2023-02-11T05:13:24.205Z,72.65
2023-02-11T05:18:27.653Z,72.76
2023-02-11T05:23:31.018Z,72.76
2023-02-11T05:28:34.741Z,72.53
2023-02-11T05:33:38.629Z,72.67
2023-02-11T05:38:42.745Z,72.48
2023-02-11T05:43:49.273Z,72.18
2023-02-11T05:48:52.831Z,72.13
2023-02-11T05:53:56.510Z,72.37
2023-02-11T05:59:00.062Z,72.08
2023-02-11T06:04:03.541Z,71.97
2023-02-11T06:09:07.389Z,71.97
2023-02-11T06:14:10.994Z,72.01
2023-02-11T06:19:14.474Z,72.22
2023-02-11T06:24:38.386Z,72.59
2023-02-11T06:29:41.467Z,72.66
2023-02-11T06:34:45.269Z,72.69
2023-02-11T06:39:49.043Z,72.79
2023-02-11T06:44:52.467Z,72.81
2023-02-11T06:49:55.933Z,72.77
2023-02-11T06:54:59.456Z,72.72
2023-02-11T07:00:03.246Z,72.58
2023-02-11T07:05:08.135Z,72.71
2023-02-11T07:10:11.719Z,72.76
2023-02-11T07:15:15.198Z,72.76
2023-02-11T07:20:18.861Z,72.82
2023-02-11T07:25:22.587Z,73.02
2023-02-11T07:30:26.186Z,72.91
2023-02-11T07:35:30.092Z,72.98
2023-02-11T07:40:33.709Z,73.14
2023-02-11T07:45:39.568Z,73.25
2023-02-11T07:50:43.173Z,73.39
2023-02-11T07:55:46.672Z,73.58
2023-02-11T08:01:18.731Z,73.87
2023-02-11T08:07:44.865Z,74.26
2023-02-11T08:13:53.803Z,74.44
2023-02-11T08:26:26.789Z,77.21
2023-02-11T08:31:38.977Z,78.58
2023-02-11T08:36:51.856Z,78.39
2023-02-11T08:42:15.874Z,78.00
2023-02-11T08:47:27.633Z,78.63
2023-02-11T08:52:38.202Z,79.05
2023-02-11T08:58:26.768Z,79.85
2023-02-11T09:03:45.737Z,79.78
2023-02-11T09:09:35.008Z,79.70
2023-02-11T09:21:32.169Z,79.46
2023-02-11T09:27:39.472Z,79.61
2023-02-11T09:33:06.350Z,79.38
2023-02-11T09:45:13.336Z,78.95
2023-02-11T09:50:48.885Z,78.79
2023-02-11T09:56:16.525Z,78.53
2023-02-11T10:07:53.093Z,78.46
2023-02-11T10:13:48.646Z,78.62
2023-02-11T10:19:39.212Z,78.70
2023-02-11T10:31:19.513Z,78.62
2023-02-11T10:36:33.319Z,78.53
2023-02-11T10:41:54.587Z,78.42
2023-02-11T10:47:35.025Z,78.46
2023-02-11T10:52:47.754Z,78.48
2023-02-11T10:58:08.881Z,78.51
2023-02-11T11:03:43.987Z,78.45
2023-02-11T11:08:59.493Z,78.70
2023-02-11T11:14:30.211Z,78.89
2023-02-11T11:19:53.411Z,78.88
2023-02-11T11:25:01.221Z,78.99
2023-02-11T11:30:16.190Z,78.86
2023-02-11T11:35:33.445Z,78.74
2023-02-11T11:41:24.274Z,78.60
2023-02-11T11:46:49.229Z,78.22
2023-02-11T11:52:05.907Z,78.08
2023-02-11T11:57:32.398Z,77.84
2023-02-11T12:03:05.213Z,78.33
2023-02-11T12:08:30.439Z,78.44
2023-02-11T12:14:07.286Z,78.65
2023-02-11T12:20:08.284Z,78.50
2023-02-11T12:25:29.028Z,78.66
2023-02-11T12:31:06.341Z,78.72
2023-02-11T12:36:33.162Z,78.56
2023-02-11T12:42:14.400Z,78.53
2023-02-11T12:47:39.654Z,78.42
2023-02-11T12:53:10.702Z,78.45
2023-02-11T12:58:32.560Z,78.51
2023-02-11T13:03:57.824Z,78.48
2023-02-11T13:15:05.762Z,78.36
2023-02-11T13:20:33.037Z,78.32
2023-02-11T13:26:00.700Z,78.37
2023-02-11T13:31:13.810Z,78.37
2023-02-11T13:36:33.692Z,78.28
2023-02-11T13:42:04.434Z,78.38
2023-02-11T13:47:32.658Z,78.32
2023-02-11T13:52:42.326Z,78.46
2023-02-11T13:58:28.397Z,78.62
2023-02-11T14:03:58.173Z,78.83
2023-02-11T14:09:53.111Z,78.86
2023-02-11T14:15:33.589Z,79.10
2023-02-11T14:21:20.362Z,79.40
2023-02-11T14:26:46.772Z,79.80
2023-02-11T14:32:06.133Z,80.11
2023-02-11T14:37:31.320Z,80.54
2023-02-11T14:42:46.068Z,80.92
2023-02-11T14:48:11.469Z,81.62
2023-02-11T14:53:38.008Z,82.55
2023-02-11T14:58:54.371Z,83.21
2023-02-11T15:04:26.362Z,84.31
2023-02-11T15:09:48.144Z,85.16
2023-02-11T15:15:15.487Z,85.65
2023-02-11T15:20:39.410Z,86.45
2023-02-11T15:26:02.870Z,86.75
2023-02-11T15:31:20.502Z,86.71
2023-02-11T15:36:42.933Z,87.17
2023-02-11T15:41:57.126Z,87.54
2023-02-11T15:47:17.121Z,88.05
2023-02-11T15:52:46.937Z,88.39
2023-02-11T15:57:59.554Z,88.36
2023-02-11T16:03:19.268Z,88.43
2023-02-11T16:08:39.662Z,88.44
2023-02-11T16:13:58.749Z,88.62
2023-02-11T16:19:17.316Z,88.79
2023-02-11T16:24:40.332Z,88.57
2023-02-11T16:29:56.911Z,88.53
2023-02-11T16:35:08.582Z,88.88
2023-02-11T16:40:26.285Z,88.53
2023-02-11T16:45:45.530Z,88.80
2023-02-11T16:51:02.335Z,88.74
2023-02-11T16:56:19.780Z,88.51
2023-02-11T17:01:26.541Z,88.45
2023-02-11T17:06:45.027Z,88.15
2023-02-11T17:11:54.991Z,88.45
2023-02-11T17:17:02.885Z,88.23
2023-02-11T17:22:12.371Z,88.21
2023-02-11T17:27:25.900Z,88.91
2023-02-11T17:32:39.387Z,89.10
2023-02-11T17:37:48.073Z,88.96
2023-02-11T17:42:59.792Z,89.39
2023-02-11T17:48:15.615Z,89.33
2023-02-11T17:53:29.381Z,89.58
2023-02-11T17:58:36.946Z,89.36
2023-02-11T18:04:01.048Z,89.30
2023-02-11T18:09:12.334Z,89.65
2023-02-11T18:14:21.365Z,89.64
2023-02-11T18:19:37.220Z,89.91
2023-02-11T18:24:51.362Z,90.03
2023-02-11T18:30:19.493Z,89.96
2023-02-11T18:35:27.701Z,90.22
2023-02-11T18:40:32.122Z,90.03
2023-02-11T18:45:35.657Z,90.12
2023-02-11T18:50:40.551Z,90.62
2023-02-11T18:55:44.904Z,90.52
2023-02-11T19:00:49.635Z,90.27
2023-02-11T19:05:54.625Z,90.37
2023-02-11T19:10:58.669Z,90.19
2023-02-11T19:16:15.250Z,90.63
2023-02-11T19:21:50.885Z,90.71
2023-02-11T19:26:58.821Z,90.79
2023-02-11T19:32:08.189Z,90.54
2023-02-11T19:37:19.202Z,90.35
2023-02-11T19:42:40.871Z,90.43
2023-02-11T19:47:51.343Z,90.82
2023-02-11T19:53:09.524Z,91.19
2023-02-11T19:58:35.027Z,91.10
2023-02-11T20:03:53.317Z,91.09
2023-02-11T20:09:19.033Z,90.92
2023-02-11T20:14:34.198Z,91.00
2023-02-11T20:19:55.215Z,91.31
2023-02-11T20:25:11.658Z,91.10
2023-02-11T20:30:22.199Z,91.28
2023-02-11T20:35:41.864Z,91.16
2023-02-11T20:40:49.520Z,90.96
2023-02-11T20:46:10.713Z,90.93
2023-02-11T20:51:23.556Z,90.81
2023-02-11T20:56:32.101Z,90.60
2023-02-11T21:01:43.972Z,90.24
2023-02-11T21:07:09.203Z,90.35
2023-02-11T21:12:28.747Z,90.22
2023-02-11T21:17:42.808Z,90.26
2023-02-11T21:22:57.750Z,90.19
2023-02-11T21:28:23.540Z,90.11
2023-02-11T21:33:35.947Z,90.06
2023-02-11T21:38:57.695Z,90.18
2023-02-11T21:44:12.331Z,90.14
2023-02-11T21:49:23.031Z,90.29
2023-02-11T21:54:33.090Z,90.35
2023-02-11T21:59:44.606Z,90.08
2023-02-11T22:04:55.173Z,90.04
2023-02-11T22:10:04.818Z,90.28
2023-02-11T22:15:11.047Z,90.40
2023-02-11T22:20:16.565Z,90.87
2023-02-11T22:25:31.400Z,90.92
2023-02-11T22:30:41.109Z,90.80
2023-02-11T22:35:48.456Z,90.68
2023-02-11T22:40:54.129Z,90.56
2023-02-11T22:46:06.367Z,90.77
2023-02-11T22:51:17.824Z,90.74
2023-02-11T22:56:24.930Z,90.80
2023-02-11T23:01:31.418Z,90.68
2023-02-11T23:06:42.752Z,90.62
2023-02-11T23:11:53.945Z,90.46
2023-02-11T23:16:59.942Z,90.46
2023-02-11T23:22:08.002Z,90.62
2023-02-11T23:27:19.987Z,90.63
2023-02-11T23:32:25.321Z,90.33
2023-02-11T23:37:32.475Z,90.26
2023-02-11T23:42:37.616Z,90.44
2023-02-11T23:47:42.640Z,90.51
2023-02-11T23:52:55.225Z,90.37
2023-02-11T23:58:00.805Z,90.38
